createdAt,value
2024-01-16T00:01:44.361Z,1.70
2024-01-16T00:04:12.926Z,2.00
2024-01-16T00:06:47.257Z,1.60
2024-01-16T00:09:16.470Z,1.98
2024-01-16T00:11:44.984Z,2.15
2024-01-16T00:14:13.208Z,1.57
2024-01-16T00:16:47.834Z,2.17
2024-01-16T00:19:16.930Z,1.60
2024-01-16T00:21:50.150Z,1.73
2024-01-16T00:24:19.896Z,1.73
2024-01-16T00:26:48.934Z,1.80
2024-01-16T00:29:18.205Z,1.60
2024-01-16T00:31:46.773Z,1.80
2024-01-16T00:34:14.821Z,1.50
2024-01-16T00:36:44.560Z,1.80
2024-01-16T00:39:13.198Z,1.47
2024-01-16T00:41:41.910Z,2.40
2024-01-16T00:44:10.978Z,1.98
2024-01-16T00:46:39.486Z,1.50
2024-01-16T00:49:10.209Z,1.40
2024-01-16T00:51:41.146Z,1.40
2024-01-16T00:54:11.238Z,1.27
2024-01-16T00:56:40.176Z,1.20
2024-01-16T00:59:08.440Z,1.42
2024-01-16T01:01:39.931Z,1.55
2024-01-16T01:04:08.812Z,1.20
2024-01-16T01:06:38.774Z,1.50
2024-01-16T01:09:07.855Z,1.30
2024-01-16T01:11:36.770Z,1.50
2024-01-16T01:14:05.092Z,1.45
2024-01-16T01:16:33.637Z,1.60
2024-01-16T01:19:02.190Z,1.30
2024-01-16T01:21:30.294Z,1.40
2024-01-16T01:23:58.336Z,1.20
2024-01-16T01:26:26.468Z,1.27
2024-01-16T01:28:54.594Z,1.40
2024-01-16T01:31:22.736Z,1.77
2024-01-16T01:33:51.058Z,1.70
2024-01-16T01:36:19.066Z,1.30
2024-01-16T01:38:47.486Z,1.20
2024-01-16T01:41:15.598Z,1.50
2024-01-16T01:43:43.725Z,1.60
2024-01-16T01:46:12.733Z,1.48
2024-01-16T01:48:42.556Z,1.58
2024-01-16T01:51:11.108Z,1.20
2024-01-16T01:53:40.993Z,1.23
2024-01-16T01:56:19.713Z,1.08
2024-01-16T01:58:53.988Z,1.30
2024-01-16T02:01:22.960Z,1.27
2024-01-16T02:03:52.112Z,1.10
2024-01-16T02:06:20.341Z,1.10
2024-01-16T02:08:48.540Z,1.23
2024-01-16T02:11:16.683Z,1.30
2024-01-16T02:13:44.734Z,1.27
2024-01-16T02:16:22.608Z,1.40
2024-01-16T02:18:51.347Z,1.13
2024-01-16T02:21:20.853Z,1.20
2024-01-16T02:23:49.268Z,1.20
2024-01-16T02:26:20.836Z,1.30
2024-01-16T02:28:49.538Z,1.20
2024-01-16T02:31:18.080Z,1.30
2024-01-16T02:33:46.280Z,1.20
2024-01-16T02:36:14.399Z,1.70
2024-01-16T02:38:45.993Z,1.30
2024-01-16T02:41:17.521Z,1.30
2024-01-16T02:43:45.927Z,1.10
2024-01-16T02:46:14.267Z,1.40
2024-01-16T02:48:44.014Z,1.23
2024-01-16T02:51:12.031Z,1.00
2024-01-16T02:53:40.138Z,1.20
2024-01-16T02:56:08.455Z,1.07
2024-01-16T02:58:36.584Z,1.30
2024-01-16T03:01:04.685Z,1.15
2024-01-16T03:03:33.093Z,1.58
2024-01-16T03:06:01.552Z,1.95
2024-01-16T03:08:29.629Z,2.50
2024-01-16T03:10:58.534Z,3.70
2024-01-16T03:13:26.600Z,2.80
2024-01-16T03:15:54.906Z,2.50
2024-01-16T03:18:24.035Z,2.00
2024-01-16T03:20:52.289Z,1.90
2024-01-16T03:23:20.384Z,1.50
2024-01-16T03:25:48.591Z,1.60
2024-01-16T03:28:16.651Z,1.60
2024-01-16T03:30:44.906Z,1.33
2024-01-16T03:33:13.292Z,1.30
2024-01-16T03:35:41.600Z,1.58
2024-01-16T03:38:10.075Z,1.50
2024-01-16T03:40:38.289Z,1.30
2024-01-16T03:43:09.466Z,1.38
2024-01-16T03:45:37.538Z,1.20
2024-01-16T03:48:06.621Z,1.00
2024-01-16T03:50:35.522Z,1.00
2024-01-16T03:53:07.968Z,0.90
2024-01-16T03:55:36.098Z,0.95
2024-01-16T03:58:04.470Z,1.00
2024-01-16T04:00:32.579Z,0.98
2024-01-16T04:03:00.648Z,1.00
2024-01-16T04:05:28.918Z,1.00
2024-01-16T04:07:58.930Z,0.90
2024-01-16T04:10:27.078Z,0.90
2024-01-16T04:12:55.287Z,0.85
2024-01-16T04:15:23.907Z,1.00
2024-01-16T04:17:52.272Z,0.90
2024-01-16T04:20:20.509Z,0.70
2024-01-16T04:22:48.949Z,0.67
2024-01-16T04:25:19.874Z,0.70
2024-01-16T04:27:48.357Z,0.60
2024-01-16T04:30:16.433Z,0.40
2024-01-16T04:32:44.726Z,0.80
2024-01-16T04:35:13.150Z,0.70
2024-01-16T04:37:41.166Z,0.70
2024-01-16T04:40:09.297Z,0.70
2024-01-16T04:42:37.719Z,0.80
2024-01-16T04:45:05.966Z,0.70
2024-01-16T04:47:34.301Z,0.80
2024-01-16T04:50:02.393Z,0.80
2024-01-16T04:52:30.738Z,0.80
2024-01-16T04:54:59.097Z,0.80
2024-01-16T04:57:27.525Z,0.60
2024-01-16T04:59:56.007Z,0.70
2024-01-16T05:02:24.194Z,0.50
2024-01-16T05:04:53.499Z,0.60
2024-01-16T05:07:21.995Z,0.68
2024-01-16T05:09:50.948Z,0.50
2024-01-16T05:12:18.996Z,0.70
2024-01-16T05:14:47.226Z,0.65
2024-01-16T05:17:15.382Z,0.60
2024-01-16T05:19:43.580Z,0.60
2024-01-16T05:22:12.754Z,0.50
2024-01-16T05:24:41.113Z,0.70
2024-01-16T05:27:10.757Z,0.52
2024-01-16T05:29:41.945Z,0.50
2024-01-16T05:32:13.606Z,0.80
2024-01-16T05:34:41.616Z,1.00
2024-01-16T05:37:09.833Z,0.70
2024-01-16T05:39:38.997Z,0.77
2024-01-16T05:42:07.577Z,0.70
2024-01-16T05:44:35.770Z,0.77
2024-01-16T05:47:03.957Z,0.60
2024-01-16T05:49:31.991Z,0.93
2024-01-16T05:52:01.215Z,0.80
2024-01-16T05:54:30.412Z,0.80
2024-01-16T05:56:58.758Z,0.80
2024-01-16T05:59:26.981Z,0.90
2024-01-16T06:01:55.110Z,0.90
2024-01-16T06:04:23.220Z,0.80
2024-01-16T06:06:51.439Z,0.73
2024-01-16T06:09:20.013Z,0.80
2024-01-16T06:11:49.612Z,1.02
2024-01-16T06:14:23.380Z,1.10
2024-01-16T06:16:52.548Z,1.08
2024-01-16T06:19:20.628Z,1.00
2024-01-16T06:21:49.086Z,0.93
2024-01-16T06:24:17.144Z,0.88
2024-01-16T06:26:45.378Z,1.10
2024-01-16T06:29:21.568Z,1.30
2024-01-16T06:31:56.992Z,0.82
2024-01-16T06:34:25.282Z,0.80
2024-01-16T06:36:53.491Z,0.90
2024-01-16T06:39:21.510Z,1.00
2024-01-16T06:41:49.836Z,0.85
2024-01-16T06:44:18.218Z,0.70
2024-01-16T06:46:46.798Z,0.77
2024-01-16T06:49:14.944Z,0.82
2024-01-16T06:51:43.392Z,0.90
2024-01-16T06:54:11.615Z,0.80
2024-01-16T06:56:39.670Z,0.80
2024-01-16T06:59:11.191Z,0.90
2024-01-16T07:01:40.314Z,0.80
2024-01-16T07:04:08.508Z,0.80
2024-01-16T07:06:36.716Z,0.90
2024-01-16T07:09:06.689Z,0.90
2024-01-16T07:11:34.970Z,0.90
2024-01-16T07:14:06.016Z,1.15
2024-01-16T07:16:34.209Z,1.23
2024-01-16T07:19:02.471Z,1.20
2024-01-16T07:21:30.734Z,1.20
2024-01-16T07:23:59.022Z,0.90
2024-01-16T07:26:27.243Z,1.10
2024-01-16T07:28:55.172Z,0.80
2024-01-16T07:31:23.421Z,1.30
2024-01-16T07:33:51.656Z,1.10
2024-01-16T07:36:20.334Z,1.00
2024-01-16T07:38:49.420Z,1.10
2024-01-16T07:41:17.765Z,1.50
2024-01-16T07:43:48.206Z,1.55
2024-01-16T07:46:18.097Z,1.70
2024-01-16T07:48:46.066Z,1.60
2024-01-16T07:51:14.279Z,1.83
2024-01-16T07:53:43.498Z,2.13
2024-01-16T07:56:12.819Z,2.67
2024-01-16T07:58:40.866Z,2.92
2024-01-16T08:01:09.062Z,2.70
2024-01-16T08:03:37.503Z,2.65
2024-01-16T08:06:05.906Z,2.40
2024-01-16T08:08:35.591Z,2.30
2024-01-16T08:11:04.017Z,2.90
2024-01-16T08:13:32.093Z,3.42
2024-01-16T08:16:03.322Z,3.05
2024-01-16T08:18:33.099Z,3.53
2024-01-16T08:21:01.384Z,3.40
2024-01-16T08:23:29.489Z,2.75
2024-01-16T08:25:57.556Z,3.40
2024-01-16T08:28:26.229Z,3.30
2024-01-16T08:30:54.422Z,4.37
2024-01-16T08:33:30.951Z,4.60
2024-01-16T08:36:02.921Z,4.35
2024-01-16T08:38:30.939Z,3.60
2024-01-16T08:40:59.007Z,3.25
2024-01-16T08:43:27.060Z,3.30
2024-01-16T08:45:55.127Z,3.00
2024-01-16T08:48:23.207Z,2.97
2024-01-16T08:50:51.511Z,2.47
2024-01-16T08:53:20.965Z,2.88
2024-01-16T08:55:49.168Z,5.20
2024-01-16T08:58:17.279Z,5.90
2024-01-16T09:00:45.486Z,4.57
2024-01-16T09:03:14.486Z,4.35
2024-01-16T09:05:42.714Z,4.63
2024-01-16T09:08:13.547Z,4.93
2024-01-16T09:10:41.990Z,6.07
2024-01-16T09:13:10.065Z,6.40
2024-01-16T09:15:38.054Z,6.53
2024-01-16T09:18:07.402Z,5.78
2024-01-16T09:20:36.285Z,5.43
2024-01-16T09:23:04.367Z,5.00
2024-01-16T09:25:32.395Z,3.80
2024-01-16T09:28:00.429Z,3.35
2024-01-16T09:30:28.638Z,3.70
2024-01-16T09:32:56.777Z,3.50
2024-01-16T09:35:25.109Z,3.75
2024-01-16T09:37:53.157Z,3.78
2024-01-16T09:40:21.264Z,4.30
2024-01-16T09:42:49.376Z,3.55
2024-01-16T09:45:21.458Z,3.80
2024-01-16T09:47:52.643Z,3.50
2024-01-16T09:50:21.596Z,4.30
2024-01-16T09:52:50.900Z,4.47
2024-01-16T09:55:19.398Z,4.80
2024-01-16T09:57:48.088Z,5.17
2024-01-16T10:00:17.015Z,4.70
2024-01-16T10:02:45.319Z,3.30
2024-01-16T10:05:14.925Z,3.40
2024-01-16T10:07:47.093Z,3.10
2024-01-16T10:10:21.428Z,3.53
2024-01-16T10:12:55.298Z,3.00
2024-01-16T10:15:24.565Z,3.72
2024-01-16T10:17:54.080Z,3.22
2024-01-16T10:20:35.154Z,3.83
2024-01-16T10:23:05.046Z,3.40
2024-01-16T10:25:33.313Z,3.45
2024-01-16T10:28:09.907Z,3.60
2024-01-16T10:30:38.073Z,3.05
2024-01-16T10:33:26.452Z,2.90
2024-01-16T10:35:54.757Z,3.63
2024-01-16T10:38:27.210Z,3.33
2024-01-16T10:41:13.802Z,4.07
2024-01-16T10:43:43.690Z,3.95
2024-01-16T10:46:13.542Z,4.82
2024-01-16T10:48:43.347Z,5.00
2024-01-16T10:51:16.806Z,4.30
2024-01-16T10:53:50.051Z,2.30
2024-01-16T10:56:20.111Z,2.30
2024-01-16T10:58:54.566Z,2.35
2024-01-16T11:01:23.164Z,2.70
2024-01-16T11:03:54.560Z,3.08
2024-01-16T11:06:23.488Z,2.50
2024-01-16T11:08:53.554Z,2.40
2024-01-16T11:11:24.953Z,2.33
2024-01-16T11:13:53.137Z,2.40
2024-01-16T11:16:22.477Z,2.28
2024-01-16T11:18:50.738Z,2.30
2024-01-16T11:21:19.600Z,2.42
2024-01-16T11:23:49.628Z,2.50
2024-01-16T11:26:34.468Z,2.50
2024-01-16T11:29:04.012Z,2.60
2024-01-16T11:31:33.430Z,3.28
2024-01-16T11:34:02.694Z,2.63
2024-01-16T11:36:49.212Z,2.45
2024-01-16T11:39:21.111Z,2.83
2024-01-16T11:41:53.100Z,2.10
2024-01-16T11:44:40.307Z,1.83
2024-01-16T11:47:10.143Z,2.63
2024-01-16T11:49:39.223Z,2.33
2024-01-16T11:52:08.183Z,1.90
2024-01-16T11:54:36.340Z,2.17
2024-01-16T11:57:21.608Z,2.40
2024-01-16T12:00:03.225Z,2.35
2024-01-16T12:02:46.197Z,2.08
2024-01-16T12:05:14.421Z,1.87
2024-01-16T12:07:48.534Z,2.17
2024-01-16T12:10:17.014Z,1.75
2024-01-16T12:12:45.202Z,1.60
2024-01-16T12:15:31.690Z,2.40
2024-01-16T12:18:03.890Z,1.87
2024-01-16T12:20:33.213Z,1.90
2024-01-16T12:23:05.506Z,1.85
2024-01-16T12:26:00.524Z,2.20
2024-01-16T12:28:31.738Z,2.28
2024-01-16T12:31:02.922Z,2.53
2024-01-16T12:33:33.161Z,2.40
2024-01-16T12:36:06.761Z,1.70
2024-01-16T12:38:36.813Z,1.60
2024-01-16T12:41:07.971Z,1.77
2024-01-16T12:43:36.231Z,1.60
2024-01-16T12:46:04.545Z,1.67
2024-01-16T12:48:33.325Z,1.42
2024-01-16T12:51:06.307Z,1.50
2024-01-16T12:53:38.591Z,2.00
2024-01-16T12:56:07.991Z,1.60
2024-01-16T12:58:37.090Z,1.70
2024-01-16T13:01:34.876Z,1.77
2024-01-16T13:04:09.424Z,1.70
2024-01-16T13:06:38.364Z,2.00
2024-01-16T13:09:17.787Z,1.83
2024-01-16T13:11:49.536Z,2.10
2024-01-16T13:14:17.917Z,1.92
2024-01-16T13:16:46.046Z,1.70
2024-01-16T13:19:14.317Z,1.58
2024-01-16T13:21:42.373Z,2.40
2024-01-16T13:24:10.672Z,1.60
2024-01-16T13:26:38.986Z,2.10
2024-01-16T13:29:07.640Z,2.50
2024-01-16T13:31:35.870Z,2.50
2024-01-16T13:34:04.513Z,2.20
2024-01-16T13:36:49.796Z,1.98
2024-01-16T13:39:22.017Z,2.10
2024-01-16T13:41:50.183Z,2.00
2024-01-16T13:44:18.485Z,2.20
2024-01-16T13:46:57.974Z,2.50
2024-01-16T13:49:35.289Z,2.05
2024-01-16T13:52:04.861Z,1.70
2024-01-16T13:54:32.995Z,4.40
2024-01-16T13:57:06.843Z,3.88
2024-01-16T13:59:37.442Z,2.63
2024-01-16T14:02:09.989Z,1.90
2024-01-16T14:04:38.973Z,2.40
2024-01-16T14:09:39.578Z,2.20
2024-01-16T14:12:10.420Z,2.23
2024-01-16T14:14:41.963Z,2.50
2024-01-16T14:17:10.633Z,2.70
2024-01-16T14:19:39.878Z,3.30
2024-01-16T14:22:08.532Z,2.17
2024-01-16T14:24:39.378Z,2.00
2024-01-16T14:27:08.611Z,2.10
2024-01-16T14:29:38.203Z,2.30
2024-01-16T14:32:07.389Z,3.38
2024-01-16T14:34:35.825Z,2.08
2024-01-16T14:37:04.202Z,2.00
2024-01-16T14:39:32.736Z,2.20
2024-01-16T14:42:01.439Z,4.20
2024-01-16T14:44:29.734Z,1.88
2024-01-16T14:46:58.611Z,2.10
2024-01-16T14:49:33.282Z,1.70
2024-01-16T14:52:02.913Z,2.13
2024-01-16T14:54:31.495Z,1.80
2024-01-16T14:56:59.719Z,2.20
2024-01-16T14:59:28.075Z,1.65
2024-01-16T15:01:56.350Z,3.87
2024-01-16T15:04:24.834Z,2.47
2024-01-16T15:06:54.608Z,1.98
2024-01-16T15:09:23.131Z,1.73
2024-01-16T15:11:51.436Z,2.05
2024-01-16T15:14:20.135Z,2.10
2024-01-16T15:16:48.368Z,2.90
2024-01-16T15:19:17.200Z,2.30
2024-01-16T15:21:45.438Z,2.35
2024-01-16T15:24:17.739Z,3.33
2024-01-16T15:26:46.728Z,3.10
2024-01-16T15:29:14.927Z,3.05
2024-01-16T15:31:43.128Z,3.55
2024-01-16T15:34:13.841Z,2.60
2024-01-16T15:36:43.981Z,4.13
2024-01-16T15:39:12.255Z,4.40
2024-01-16T15:41:41.436Z,5.25
2024-01-16T15:44:11.926Z,5.32
2024-01-16T15:47:00.640Z,6.50
2024-01-16T15:49:29.351Z,5.20
2024-01-16T15:51:58.057Z,3.97
2024-01-16T15:54:26.462Z,4.05
2024-01-16T15:56:55.513Z,3.75
2024-01-16T15:59:27.485Z,4.57
2024-01-16T16:01:55.681Z,5.20
2024-01-16T16:04:25.087Z,6.43
2024-01-16T16:06:53.684Z,6.57
2024-01-16T16:09:22.113Z,9.38
2024-01-16T16:11:53.373Z,10.23
2024-01-16T16:14:21.796Z,7.57
2024-01-16T16:16:51.251Z,4.60
2024-01-16T16:19:19.792Z,4.20
2024-01-16T16:21:50.287Z,3.65
2024-01-16T16:24:19.498Z,3.72
2024-01-16T16:26:48.051Z,3.00
2024-01-16T16:29:16.432Z,4.07
2024-01-16T16:31:44.784Z,3.75
2024-01-16T16:34:16.197Z,3.90
2024-01-16T16:36:44.886Z,4.82
2024-01-16T16:39:18.135Z,4.30
2024-01-16T16:41:48.086Z,3.80
2024-01-16T16:44:16.533Z,3.92
2024-01-16T16:46:44.772Z,4.32
2024-01-16T16:49:13.327Z,4.75
2024-01-16T16:51:43.455Z,4.25
2024-01-16T16:54:12.950Z,4.50
2024-01-16T16:56:45.823Z,5.30
2024-01-16T16:59:14.192Z,6.20
2024-01-16T17:01:42.634Z,6.88
2024-01-16T17:04:10.917Z,5.25
2024-01-16T17:06:39.444Z,4.63
2024-01-16T17:09:08.368Z,4.18
2024-01-16T17:11:36.780Z,4.32
2024-01-16T17:14:05.552Z,4.35
2024-01-16T17:16:33.934Z,4.75
2024-01-16T17:19:02.322Z,5.20
2024-01-16T17:21:30.824Z,4.90
2024-01-16T17:23:59.828Z,5.50
2024-01-16T17:26:31.049Z,5.60
2024-01-16T17:29:01.112Z,4.82
2024-01-16T17:31:30.024Z,4.73
2024-01-16T17:33:59.195Z,7.63
2024-01-16T17:36:30.254Z,7.07
2024-01-16T17:39:01.390Z,6.80
2024-01-16T17:41:31.244Z,10.13
2024-01-16T17:43:59.820Z,11.88
2024-01-16T17:46:28.118Z,7.90
2024-01-16T17:48:58.323Z,10.15
2024-01-16T17:51:26.997Z,11.43
2024-01-16T17:53:55.183Z,10.63
2024-01-16T17:56:25.553Z,14.48
2024-01-16T17:58:55.746Z,11.53
2024-01-16T18:01:24.112Z,11.38
2024-01-16T18:03:53.294Z,12.23
2024-01-16T18:06:23.549Z,9.10
2024-01-16T18:08:52.335Z,8.43
2024-01-16T18:11:21.680Z,7.73
2024-01-16T18:13:50.056Z,10.10
2024-01-16T18:16:18.920Z,11.77
2024-01-16T18:18:47.928Z,8.07
2024-01-16T18:21:16.245Z,7.10
2024-01-16T18:23:44.762Z,4.30
2024-01-16T18:26:14.637Z,5.82
2024-01-16T18:28:44.165Z,6.28
2024-01-16T18:31:15.620Z,6.22
2024-01-16T18:33:45.221Z,6.53
2024-01-16T18:36:14.466Z,5.87
2024-01-16T18:38:46.910Z,8.32
2024-01-16T18:41:15.501Z,9.02
2024-01-16T18:43:43.720Z,6.93
2024-01-16T18:46:15.929Z,5.82
2024-01-16T18:48:45.241Z,6.43
2024-01-16T18:51:18.855Z,6.50
2024-01-16T18:53:47.493Z,7.50
2024-01-16T18:56:16.302Z,8.10
2024-01-16T18:58:44.933Z,7.68
2024-01-16T19:01:14.970Z,8.03
2024-01-16T19:03:43.352Z,5.40
2024-01-16T19:06:14.706Z,7.72
2024-01-16T19:08:43.611Z,7.53
2024-01-16T19:11:11.990Z,8.15
2024-01-16T19:13:44.494Z,8.03
2024-01-16T19:16:13.438Z,8.43
2024-01-16T19:18:43.252Z,8.55
2024-01-16T19:21:11.774Z,9.00
2024-01-16T19:23:40.066Z,9.15
2024-01-16T19:26:10.134Z,9.60
2024-01-16T19:28:38.719Z,9.43
2024-01-16T19:31:07.330Z,8.90
2024-01-16T19:33:36.074Z,9.48
2024-01-16T19:36:07.108Z,8.38
2024-01-16T19:38:37.350Z,8.10
2024-01-16T19:41:07.381Z,7.80
2024-01-16T19:43:37.501Z,8.65
2024-01-16T19:46:06.147Z,8.60
2024-01-16T19:48:40.966Z,7.88
2024-01-16T19:51:11.681Z,8.67
2024-01-16T19:53:40.363Z,8.85
2024-01-16T19:56:09.065Z,8.20
2024-01-16T19:58:39.039Z,7.97
2024-01-16T20:01:07.806Z,7.30
2024-01-16T20:03:39.022Z,7.77
2024-01-16T20:06:07.542Z,8.05
2024-01-16T20:08:35.890Z,7.55
2024-01-16T20:11:05.469Z,6.60
2024-01-16T20:13:33.751Z,6.53
2024-01-16T20:16:03.044Z,6.30
2024-01-16T20:18:31.419Z,6.13
2024-01-16T20:20:59.893Z,6.25
2024-01-16T20:23:29.076Z,6.20
2024-01-16T20:25:58.117Z,6.55
2024-01-16T20:28:26.328Z,6.53
2024-01-16T20:30:55.009Z,6.90
2024-01-16T20:33:23.620Z,6.53
2024-01-16T20:35:54.491Z,6.55
2024-01-16T20:38:23.116Z,6.55
2024-01-16T20:40:51.636Z,5.70
2024-01-16T20:43:20.437Z,5.65
2024-01-16T20:45:49.159Z,5.57
2024-01-16T20:48:17.771Z,6.05
2024-01-16T20:50:46.155Z,5.78
2024-01-16T20:53:15.050Z,8.33
2024-01-16T20:55:43.613Z,6.53
2024-01-16T20:58:14.003Z,5.60
2024-01-16T21:00:43.026Z,5.60
2024-01-16T21:03:13.372Z,4.90
2024-01-16T21:05:42.567Z,4.57
2024-01-16T21:08:12.963Z,4.90
2024-01-16T21:10:41.839Z,5.15
2024-01-16T21:13:11.270Z,5.53
2024-01-16T21:15:39.655Z,6.50
2024-01-16T21:18:09.508Z,5.40
2024-01-16T21:20:37.800Z,5.10
2024-01-16T21:23:07.319Z,5.40
2024-01-16T21:25:36.151Z,4.75
2024-01-16T21:28:05.150Z,4.35
2024-01-16T21:30:33.558Z,6.17
2024-01-16T21:33:01.968Z,4.65
2024-01-16T21:35:30.362Z,5.00
2024-01-16T21:37:58.596Z,4.95
2024-01-16T21:40:26.842Z,4.22
2024-01-16T21:42:55.049Z,3.90
2024-01-16T21:45:23.651Z,3.85
2024-01-16T21:47:51.941Z,3.97
2024-01-16T21:50:26.336Z,3.10
2024-01-16T21:53:01.899Z,3.17
2024-01-16T21:55:29.921Z,3.17
2024-01-16T21:57:58.501Z,3.10
2024-01-16T22:00:27.503Z,3.03
2024-01-16T22:02:58.817Z,2.88
2024-01-16T22:05:28.435Z,3.10
2024-01-16T22:07:56.727Z,2.80
2024-01-16T22:10:24.917Z,3.08
2024-01-16T22:12:53.162Z,3.00
2024-01-16T22:15:21.326Z,2.85
2024-01-16T22:17:49.407Z,2.45
2024-01-16T22:20:18.107Z,3.00
2024-01-16T22:22:46.121Z,2.55
2024-01-16T22:25:14.442Z,2.80
2024-01-16T22:27:42.854Z,2.35
2024-01-16T22:30:13.530Z,2.58
2024-01-16T22:32:42.284Z,2.50
2024-01-16T22:35:10.666Z,2.60
2024-01-16T22:37:44.484Z,2.40
2024-01-16T22:40:14.649Z,2.45
2024-01-16T22:42:42.696Z,2.88
2024-01-16T22:45:11.203Z,2.70
2024-01-16T22:47:39.718Z,2.60
2024-01-16T22:50:12.864Z,2.55
2024-01-16T22:52:42.207Z,2.50
2024-01-16T22:55:10.492Z,3.15
2024-01-16T22:57:38.534Z,2.40
2024-01-16T23:00:19.341Z,2.45
2024-01-16T23:02:48.832Z,2.70
2024-01-16T23:05:21.729Z,3.03
2024-01-16T23:07:51.059Z,2.47
2024-01-16T23:10:19.206Z,2.77
2024-01-16T23:12:47.691Z,2.13
2024-01-16T23:15:17.008Z,2.15
2024-01-16T23:17:45.652Z,2.13
2024-01-16T23:20:14.900Z,2.42
2024-01-16T23:22:43.436Z,2.75
2024-01-16T23:25:12.257Z,2.33
2024-01-16T23:27:41.160Z,2.43
2024-01-16T23:30:10.960Z,2.05
2024-01-16T23:32:39.597Z,2.42
2024-01-16T23:35:13.680Z,2.10
2024-01-16T23:37:45.806Z,2.55
2024-01-16T23:40:17.043Z,1.80
2024-01-16T23:42:46.486Z,2.00
2024-01-16T23:45:24.243Z,2.15
2024-01-16T23:47:59.635Z,2.28
2024-01-16T23:50:28.033Z,1.90
2024-01-16T23:52:56.375Z,2.00
2024-01-16T23:55:24.608Z,2.20
2024-01-16T23:57:53.335Z,2.28
